createdAt,value
2023-05-19T00:01:35.399Z,80.3329
2023-05-19T00:02:36.695Z,78.8325
2023-05-19T00:04:40.185Z,79.5450
2023-05-19T00:05:42.058Z,79.4266
2023-05-19T00:07:44.798Z,78.0537
2023-05-19T00:08:46.076Z,78.3173
2023-05-19T00:11:51.697Z,78.6153
2023-05-19T00:12:54.166Z,79.4102
2023-05-19T00:14:53.905Z,80.2760
2023-05-19T00:15:55.921Z,80.3371
2023-05-19T00:16:57.535Z,79.2788
2023-05-19T00:17:58.731Z,80.1713
2023-05-19T00:18:59.559Z,79.1698
2023-05-19T00:31:16.684Z,79.4999
2023-05-19T00:32:18.660Z,80.0767
2023-05-19T00:38:26.000Z,79.5036
2023-05-19T00:39:27.689Z,80.7507
2023-05-19T00:40:28.823Z,82.0577
2023-05-19T00:41:30.820Z,80.5774
2023-05-19T00:42:31.030Z,80.4514
2023-05-19T00:43:31.922Z,80.0326
2023-05-19T00:45:34.500Z,80.1802
2023-05-19T00:54:12.677Z,80.4410
2023-05-19T00:55:13.624Z,81.2138
2023-05-19T00:56:15.410Z,79.9163
2023-05-19T00:57:16.776Z,79.8781
2023-05-19T00:58:18.106Z,80.3282
2023-05-19T01:00:21.704Z,79.1260
2023-05-19T01:16:40.490Z,81.9873
2023-05-19T01:17:41.622Z,82.6782
2023-05-19T01:18:42.809Z,82.8122
2023-05-19T01:19:44.418Z,82.6616
2023-05-19T01:20:46.029Z,82.6181
2023-05-19T01:21:46.970Z,82.4320
2023-05-19T01:22:47.761Z,82.3895
2023-05-19T01:23:48.933Z,82.2117
2023-05-19T01:24:49.151Z,83.4890
2023-05-19T01:38:05.779Z,83.3370
2023-05-19T01:39:06.476Z,83.8227
2023-05-19T01:45:12.801Z,83.2110
2023-05-19T01:52:19.319Z,83.6652
2023-05-19T01:53:21.220Z,82.6956
2023-05-19T01:54:22.526Z,82.7061
2023-05-19T01:55:24.587Z,82.9451
2023-05-19T01:56:26.830Z,83.8668
2023-05-19T01:57:27.823Z,83.4152
2023-05-19T01:58:29.130Z,82.8161
2023-05-19T01:59:31.954Z,82.0263
2023-05-19T02:00:32.078Z,83.6261
2023-05-19T02:13:45.852Z,83.6106
2023-05-19T02:14:46.863Z,84.5534
2023-05-19T02:15:48.016Z,83.9963
2023-05-19T02:16:49.150Z,84.0312
2023-05-19T02:17:51.368Z,83.1802
2023-05-19T02:30:04.746Z,85.0641
2023-05-19T02:31:07.409Z,83.6537
2023-05-19T02:33:08.017Z,82.6179
2023-05-19T02:34:08.699Z,82.4497
2023-05-19T02:35:09.962Z,83.8188
2023-05-19T02:36:11.520Z,82.5561
2023-05-19T02:37:13.420Z,83.3534
2023-05-19T02:38:15.073Z,82.9537
2023-05-19T02:40:18.389Z,83.8343
2023-05-19T02:41:20.493Z,82.7041
2023-05-19T02:46:26.058Z,82.6735
2023-05-19T02:47:27.882Z,82.5988
2023-05-19T02:48:29.528Z,82.5648
2023-05-19T02:49:30.928Z,82.7110
2023-05-19T03:10:42.563Z,85.5925
2023-05-19T03:11:45.096Z,84.0758
2023-05-19T03:12:46.230Z,83.8113
2023-05-19T03:14:47.001Z,83.6571
2023-05-19T03:16:50.808Z,83.2445
2023-05-19T03:17:51.695Z,83.9691
2023-05-19T03:23:58.129Z,83.7501
2023-05-19T03:24:59.553Z,83.8558
2023-05-19T03:26:02.472Z,83.6175
2023-05-19T03:35:09.387Z,84.4775
2023-05-19T03:36:10.349Z,85.1368
2023-05-19T03:37:12.509Z,84.3105
2023-05-19T03:38:14.381Z,84.0604
2023-05-19T03:48:55.201Z,83.8453
2023-05-19T03:49:56.408Z,84.3850
2023-05-19T03:50:57.633Z,84.8614
2023-05-19T03:53:00.519Z,85.2637
2023-05-19T03:54:01.581Z,85.9118
2023-05-19T03:56:04.540Z,86.2077
2023-05-19T03:57:06.338Z,85.8486
2023-05-19T03:58:07.536Z,86.4059
2023-05-19T03:59:08.642Z,86.8008
2023-05-19T04:00:09.947Z,85.7833
2023-05-19T04:02:13.060Z,85.4519
2023-05-19T04:03:14.696Z,85.2434
2023-05-19T04:04:16.096Z,85.1526
2023-05-19T04:05:17.497Z,85.7663
2023-05-19T04:06:19.245Z,85.4283
2023-05-19T04:07:20.716Z,85.1007
2023-05-19T04:08:23.734Z,85.3195
2023-05-19T04:09:23.753Z,85.2425
2023-05-19T04:10:24.143Z,85.1215
2023-05-19T04:23:36.147Z,85.7015
2023-05-19T04:24:38.199Z,86.2533
2023-05-19T04:25:38.724Z,86.2015
2023-05-19T04:26:39.912Z,86.0482
2023-05-19T04:27:41.454Z,85.8688
2023-05-19T04:28:43.776Z,85.8383
2023-05-19T04:29:44.249Z,85.9427
2023-05-19T04:30:44.533Z,86.4799
2023-05-19T04:31:44.870Z,86.4081
2023-05-19T04:48:05.778Z,84.0522
2023-05-19T04:49:08.029Z,84.5080
2023-05-19T04:54:12.050Z,83.9106
2023-05-19T04:55:13.510Z,84.2584
2023-05-19T04:56:15.440Z,83.4039
2023-05-19T04:58:19.338Z,83.1041
2023-05-19T04:59:20.432Z,82.1715
2023-05-19T05:00:23.480Z,82.3898
2023-05-19T05:01:24.181Z,82.0504
2023-05-19T05:02:24.277Z,82.5294
2023-05-19T05:03:25.860Z,82.1097
2023-05-19T05:04:26.885Z,82.3138
2023-05-19T05:05:28.441Z,82.0563
2023-05-19T05:06:30.015Z,81.9256
2023-05-19T05:09:33.769Z,81.2920
2023-05-19T05:10:35.900Z,80.9227
2023-05-19T05:11:36.047Z,82.4235
2023-05-19T05:12:37.722Z,81.9833
2023-05-19T05:18:47.523Z,80.2516
2023-05-19T05:19:48.910Z,81.2702
2023-05-19T05:20:49.941Z,80.2390
2023-05-19T05:21:52.632Z,79.2015
2023-05-19T05:34:05.615Z,81.3364
2023-05-19T05:37:09.101Z,81.7795
2023-05-19T05:38:11.706Z,81.4938
2023-05-19T05:39:13.036Z,81.9011
2023-05-19T05:40:14.996Z,81.3613
2023-05-19T05:41:15.119Z,81.9071
2023-05-19T05:42:17.463Z,81.9926
2023-05-19T05:44:17.941Z,82.2841
2023-05-19T05:45:18.479Z,82.4914
2023-05-19T05:46:20.588Z,82.1572
2023-05-19T05:47:21.002Z,81.8142
2023-05-19T05:51:25.341Z,81.9269
2023-05-19T05:52:26.035Z,82.0980
2023-05-19T05:54:26.526Z,82.2548
2023-05-19T06:00:36.456Z,82.5124
2023-05-19T06:02:37.892Z,81.8618
2023-05-19T06:03:37.840Z,81.9151
2023-05-19T06:05:42.367Z,82.1984
2023-05-19T06:11:17.206Z,81.1637
2023-05-19T06:12:18.255Z,81.8081
2023-05-19T06:13:18.482Z,82.1411
2023-05-19T06:14:20.956Z,81.8209
2023-05-19T06:15:22.344Z,82.0728
2023-05-19T06:16:23.757Z,81.9371
2023-05-19T06:18:27.189Z,82.0907
2023-05-19T06:19:29.154Z,82.6558
2023-05-19T06:20:30.576Z,82.1788
2023-05-19T06:21:31.664Z,82.1435
2023-05-19T06:22:31.422Z,82.1745
2023-05-19T06:31:45.131Z,82.7840
2023-05-19T06:38:53.715Z,82.3175
2023-05-19T06:39:54.635Z,82.3541
2023-05-19T06:40:56.395Z,82.0471
2023-05-19T06:41:58.750Z,82.1281
2023-05-19T06:43:00.758Z,82.4012
2023-05-19T06:44:02.924Z,82.6080
2023-05-19T06:45:04.010Z,82.6821
2023-05-19T06:46:06.010Z,82.4114
2023-05-19T06:47:08.104Z,81.9821
2023-05-19T06:49:09.332Z,81.9267
2023-05-19T06:50:10.912Z,82.5172
2023-05-19T06:51:13.045Z,82.5307
2023-05-19T06:52:14.487Z,82.2594
2023-05-19T06:54:16.854Z,82.5008
2023-05-19T06:55:17.912Z,82.8330
2023-05-19T06:56:18.940Z,82.9399
2023-05-19T06:57:33.331Z,82.4647
2023-05-19T09:07:40.395Z,73.7962
2023-05-19T09:08:41.055Z,75.1157
2023-05-19T09:09:41.821Z,76.0172
2023-05-19T09:10:42.785Z,74.6201
2023-05-19T09:11:43.219Z,72.7695
2023-05-19T09:12:45.355Z,73.6889
2023-05-19T09:13:46.509Z,73.3871
2023-05-19T09:14:48.299Z,74.1915
2023-05-19T09:15:48.617Z,75.6692
2023-05-19T09:16:49.923Z,74.6338
2023-05-19T09:17:50.913Z,74.3517
2023-05-19T09:18:51.219Z,74.1861
2023-05-19T09:19:53.189Z,74.5558
2023-05-19T09:20:53.441Z,75.2834
2023-05-19T09:21:55.549Z,74.7797
2023-05-19T09:22:55.476Z,75.7164
2023-05-19T09:23:56.847Z,75.0205
2023-05-19T09:24:56.856Z,74.7279
2023-05-19T09:25:58.402Z,76.5133
2023-05-19T09:27:00.859Z,77.2048
2023-05-19T09:29:00.495Z,76.2411
2023-05-19T09:58:37.505Z,72.0383
2023-05-19T09:59:37.952Z,72.4023
2023-05-19T10:00:38.777Z,72.3093
2023-05-19T10:01:41.218Z,71.4823
2023-05-19T10:02:41.527Z,71.1772
2023-05-19T10:03:41.962Z,72.4115
2023-05-19T10:04:42.738Z,74.6323
2023-05-19T10:05:42.973Z,73.6650
2023-05-19T10:06:43.838Z,71.4897
2023-05-19T10:07:45.467Z,71.1702
2023-05-19T10:08:47.592Z,70.9550
2023-05-19T10:09:48.292Z,68.9062
2023-05-19T10:10:48.863Z,69.1849
2023-05-19T10:11:49.417Z,69.7973
2023-05-19T10:12:50.421Z,69.9573
2023-05-19T10:13:51.238Z,71.3247
2023-05-19T10:14:51.058Z,72.1351
2023-05-19T10:24:58.373Z,72.1401
2023-05-19T10:25:59.477Z,71.0039
2023-05-19T10:27:00.683Z,71.0801
2023-05-19T10:29:02.956Z,72.3227
2023-05-19T10:30:04.076Z,71.0670
2023-05-19T10:31:05.629Z,71.2050
2023-05-19T10:33:07.953Z,71.5957
2023-05-19T10:34:08.815Z,72.3528
2023-05-19T10:35:10.044Z,70.9200
2023-05-19T10:36:11.027Z,72.0500
2023-05-19T10:37:11.192Z,72.1980
2023-05-19T10:38:11.770Z,72.0346
2023-05-19T10:39:13.691Z,72.5224
2023-05-19T10:40:14.057Z,71.3874
2023-05-19T10:41:15.033Z,71.1190
2023-05-19T10:42:15.846Z,71.1539
2023-05-19T10:43:17.379Z,72.4059
2023-05-19T10:44:17.549Z,71.0201
2023-05-19T10:45:19.418Z,71.1986
2023-05-19T10:46:20.851Z,72.3487
2023-05-19T10:47:21.592Z,72.5949
2023-05-19T10:48:21.810Z,69.0927
2023-05-19T10:49:22.548Z,69.0958
2023-05-19T10:50:22.868Z,71.2354
2023-05-19T10:51:23.724Z,72.3028
2023-05-19T10:52:24.122Z,71.8088
2023-05-19T10:53:25.007Z,72.3605
2023-05-19T10:54:25.666Z,69.9273
2023-05-19T10:55:26.276Z,72.0563
2023-05-19T10:56:28.595Z,71.0215
2023-05-19T10:57:29.103Z,69.8049
2023-05-19T11:01:35.281Z,69.0100
2023-05-19T11:02:35.618Z,68.6820
2023-05-19T11:03:37.187Z,68.8302
2023-05-19T11:04:37.504Z,70.6219
2023-05-19T11:05:38.161Z,68.3824
2023-05-19T11:06:38.216Z,69.5117
2023-05-19T11:07:38.617Z,70.1839
2023-05-19T11:08:39.348Z,70.9573
2023-05-19T11:10:42.549Z,70.7596
2023-05-19T11:11:44.634Z,70.1496
2023-05-19T11:12:45.846Z,70.5994
2023-05-19T11:13:46.519Z,70.8929
2023-05-19T11:14:46.577Z,71.1239
2023-05-19T11:15:47.454Z,72.3069
2023-05-19T11:16:47.396Z,68.1363
2023-05-19T11:38:03.923Z,69.4328
2023-05-19T11:39:05.334Z,67.0378
2023-05-19T11:40:07.029Z,65.3973
2023-05-19T11:41:08.320Z,64.9592
2023-05-19T11:42:09.666Z,64.6098
2023-05-19T11:43:10.320Z,63.0797
2023-05-19T11:44:11.283Z,62.5261
2023-05-19T11:45:12.006Z,62.0040
2023-05-19T11:48:16.817Z,66.1595
2023-05-19T11:49:18.052Z,65.9622
2023-05-19T11:50:19.240Z,65.1167
2023-05-19T11:51:19.410Z,65.8144
2023-05-19T11:52:19.811Z,65.1332
2023-05-19T11:53:21.106Z,62.9037
2023-05-19T11:54:23.141Z,64.0579
2023-05-19T11:55:23.892Z,64.1511
2023-05-19T11:56:24.320Z,65.5223
2023-05-19T11:57:26.323Z,63.3548
2023-05-19T11:58:27.073Z,62.5784
2023-05-19T11:59:27.768Z,62.8364
2023-05-19T12:00:29.049Z,63.4030
2023-05-19T12:01:29.943Z,60.9980
2023-05-19T12:02:30.324Z,62.0919
2023-05-19T12:03:31.098Z,62.4521
2023-05-19T12:04:31.605Z,62.8704
2023-05-19T12:05:43.170Z,60.3989
2023-05-19T12:18:15.203Z,64.2126
2023-05-19T12:19:16.121Z,63.1178
2023-05-19T12:20:16.809Z,64.7371
2023-05-19T12:21:17.387Z,66.4992
2023-05-19T12:22:18.128Z,64.7937
2023-05-19T12:23:18.501Z,63.4440
2023-05-19T12:24:19.408Z,63.4221
2023-05-19T12:25:20.313Z,62.7617
2023-05-19T12:26:20.649Z,63.9755
2023-05-19T12:27:20.963Z,61.6309
2023-05-19T12:29:21.815Z,63.6118
2023-05-19T12:30:22.183Z,63.6864
2023-05-19T12:31:23.707Z,62.3312
2023-05-19T12:32:25.498Z,63.2993
2023-05-19T12:33:26.701Z,62.2122
2023-05-19T12:34:27.505Z,63.2640
2023-05-19T12:38:32.847Z,61.3005
2023-05-19T12:39:33.823Z,62.1512
2023-05-19T12:40:36.642Z,62.6332
2023-05-19T12:59:54.949Z,67.7143
2023-05-19T13:00:54.800Z,66.0891
2023-05-19T13:13:06.721Z,64.1170
2023-05-19T13:17:11.987Z,67.8218
2023-05-19T13:18:12.645Z,68.3839
2023-05-19T13:37:00.486Z,68.6711
2023-05-19T13:38:01.580Z,69.8994
2023-05-19T13:39:02.733Z,71.1368
2023-05-19T13:40:03.102Z,69.8575
2023-05-19T13:41:03.309Z,69.9100
2023-05-19T13:42:04.171Z,69.6066
2023-05-19T13:43:05.475Z,70.5169
2023-05-19T13:44:06.770Z,71.5309
2023-05-19T13:45:07.981Z,68.9038
2023-05-19T13:46:09.245Z,68.4304
2023-05-19T13:47:10.780Z,69.7794
2023-05-19T13:48:11.453Z,70.0765
2023-05-19T13:49:12.382Z,70.3107
2023-05-19T13:50:13.148Z,69.0972
2023-05-19T13:51:13.717Z,69.6683
2023-05-19T13:52:14.492Z,68.0280
2023-05-19T13:53:14.446Z,68.4892
2023-05-19T14:14:04.675Z,72.7868
2023-05-19T14:15:05.371Z,72.1916
2023-05-19T14:16:05.992Z,71.6714
2023-05-19T14:17:06.551Z,71.4311
2023-05-19T14:18:07.793Z,73.7238
2023-05-19T14:19:08.161Z,72.9547
2023-05-19T14:28:14.462Z,71.2988
2023-05-19T14:30:15.151Z,74.6383
2023-05-19T14:31:17.051Z,72.2502
2023-05-19T14:32:17.779Z,71.9914
2023-05-19T14:33:19.266Z,72.5511
2023-05-19T14:34:20.352Z,70.6307
2023-05-19T14:35:20.800Z,69.4762
2023-05-19T14:36:21.359Z,69.9154
2023-05-19T14:39:25.792Z,70.8939
2023-05-19T14:40:25.804Z,70.3752
2023-05-19T14:41:25.904Z,70.6628
2023-05-19T14:42:26.954Z,70.0291
2023-05-19T14:45:29.740Z,70.8029
2023-05-19T14:46:30.055Z,70.3888
2023-05-19T14:47:31.377Z,69.9269
2023-05-19T14:48:32.069Z,69.6826
2023-05-19T14:49:32.057Z,70.3276
2023-05-19T14:50:32.988Z,69.0089
2023-05-19T14:51:32.919Z,68.8238
2023-05-19T14:52:33.455Z,70.5989
2023-05-19T14:53:34.452Z,69.4501
2023-05-19T14:54:35.014Z,68.9899
2023-05-19T14:55:36.518Z,69.0042
2023-05-19T14:56:37.054Z,68.5606
2023-05-19T14:57:37.897Z,69.2944
2023-05-19T14:58:38.551Z,69.2015
2023-05-19T14:59:39.582Z,69.7276
2023-05-19T15:00:39.691Z,68.8946
2023-05-19T15:01:40.591Z,69.3587
2023-05-19T15:02:41.005Z,69.5448
2023-05-19T15:04:44.604Z,70.4431
2023-05-19T15:05:44.775Z,69.4721
2023-05-19T15:25:00.175Z,71.7484
2023-05-19T15:26:00.346Z,72.0572
2023-05-19T15:27:01.548Z,71.4131
2023-05-19T15:28:02.918Z,72.4685
2023-05-19T15:29:02.700Z,71.9323
2023-05-19T15:31:05.266Z,73.0817
2023-05-19T15:33:07.314Z,72.5680
2023-05-19T15:38:15.021Z,71.7395
2023-05-19T15:39:16.526Z,72.7245
2023-05-19T15:40:18.096Z,72.9325
2023-05-19T15:41:19.029Z,72.3617
2023-05-19T15:42:20.471Z,72.5092
2023-05-19T15:43:21.109Z,72.4401
2023-05-19T15:45:21.946Z,72.6598
2023-05-19T15:46:23.563Z,72.3958
2023-05-19T15:48:26.968Z,71.9444
2023-05-19T15:49:29.852Z,72.2188
2023-05-19T16:00:43.791Z,72.6740
2023-05-19T16:01:44.454Z,72.3856
2023-05-19T16:02:44.525Z,72.4951
2023-05-19T16:03:46.895Z,72.1747
2023-05-19T16:04:47.121Z,71.6752
2023-05-19T16:05:48.231Z,72.8953
2023-05-19T16:06:48.743Z,73.3092
2023-05-19T16:07:48.926Z,72.3620
2023-05-19T16:08:51.758Z,73.5967
2023-05-19T16:09:53.177Z,71.8596
2023-05-19T16:10:55.685Z,71.8759
2023-05-19T16:11:56.169Z,72.2205
2023-05-19T16:21:05.640Z,69.7959
2023-05-19T16:22:06.166Z,69.7739
2023-05-19T16:23:07.628Z,70.1452
2023-05-19T16:24:08.624Z,70.0322
2023-05-19T16:25:08.705Z,70.2578
2023-05-19T16:26:09.703Z,69.6938
2023-05-19T16:27:11.190Z,71.3447
2023-05-19T16:28:12.046Z,70.7481
2023-05-19T16:29:14.133Z,70.9114
2023-05-19T16:30:14.889Z,70.3531
2023-05-19T16:31:16.356Z,69.5399
2023-05-19T16:32:16.864Z,69.6270
2023-05-19T16:42:26.517Z,70.3863
2023-05-19T16:43:28.875Z,71.5288
2023-05-19T16:44:28.985Z,72.3396
2023-05-19T16:52:38.295Z,71.2650
2023-05-19T16:53:41.028Z,72.8190
2023-05-19T16:54:41.621Z,72.0286
2023-05-19T17:09:57.231Z,71.9973
2023-05-19T17:10:57.368Z,72.3091
2023-05-19T17:11:57.193Z,72.6930
2023-05-19T17:14:01.092Z,72.4870
2023-05-19T17:15:00.757Z,73.1148
2023-05-19T17:17:03.769Z,72.9626
2023-05-19T17:18:05.362Z,72.9438
2023-05-19T17:19:07.248Z,72.8110
2023-05-19T17:20:07.753Z,72.6728
2023-05-19T17:21:10.019Z,73.0712
2023-05-19T17:22:11.400Z,74.2301
2023-05-19T17:23:14.332Z,74.3524
2023-05-19T17:25:16.520Z,73.6133
2023-05-19T17:26:18.499Z,73.6495
2023-05-19T17:38:33.182Z,74.2194
2023-05-19T17:39:33.575Z,74.1820
2023-05-19T17:41:36.428Z,73.7022
2023-05-19T17:42:38.736Z,74.1360
2023-05-19T17:44:42.469Z,74.7641
2023-05-19T17:45:43.671Z,74.8211
2023-05-19T17:46:44.930Z,74.4247
2023-05-19T17:47:47.000Z,74.0950
2023-05-19T17:48:47.340Z,74.0793
2023-05-19T17:49:51.642Z,74.7775
2023-05-19T18:05:08.384Z,75.1120
2023-05-19T18:06:08.834Z,73.7718
2023-05-19T18:07:10.102Z,74.1641
2023-05-19T18:08:12.536Z,73.8279
2023-05-19T18:09:14.503Z,73.7538
2023-05-19T18:19:26.587Z,73.3988
2023-05-19T18:20:28.416Z,73.9344
2023-05-19T18:21:30.708Z,73.8486
2023-05-19T18:22:31.129Z,74.1093
2023-05-19T18:23:33.018Z,74.1135
2023-05-19T18:24:34.058Z,73.7358
2023-05-19T18:25:35.788Z,73.7332
2023-05-19T18:26:36.681Z,74.1105
2023-05-19T18:27:38.197Z,74.2487
2023-05-19T18:28:40.515Z,74.4880
2023-05-19T18:29:41.527Z,74.6104
2023-05-19T18:30:42.997Z,75.1593
2023-05-19T18:31:45.377Z,74.9673
2023-05-19T18:32:46.950Z,75.6242
2023-05-19T18:47:04.392Z,75.2438
2023-05-19T18:48:06.261Z,75.0837
2023-05-19T18:52:11.575Z,75.8460
2023-05-19T18:53:13.780Z,76.6530
2023-05-19T18:55:15.004Z,76.1988
2023-05-19T18:56:16.947Z,76.4354
2023-05-19T18:57:18.049Z,76.2363
2023-05-19T18:58:19.953Z,75.9151
2023-05-19T18:59:22.502Z,76.3486
2023-05-19T19:00:24.545Z,76.0622
2023-05-19T19:01:27.181Z,76.8511
2023-05-19T19:03:29.812Z,78.4782
2023-05-19T19:04:31.511Z,76.1905
2023-05-19T19:06:32.281Z,76.4907
2023-05-19T19:07:32.885Z,76.6387
2023-05-19T19:15:42.321Z,77.7453
2023-05-19T19:16:44.103Z,78.1644
2023-05-19T19:17:45.858Z,76.9649
2023-05-19T19:18:47.622Z,78.3738
2023-05-19T19:19:49.729Z,77.1791
2023-05-19T19:20:50.819Z,77.5653
2023-05-19T19:21:52.743Z,76.9356
2023-05-19T19:22:54.137Z,77.2075
2023-05-19T19:23:55.839Z,77.1506
2023-05-19T19:25:58.359Z,76.8647
2023-05-19T19:27:00.474Z,77.4100
2023-05-19T19:29:03.313Z,77.9206
2023-05-19T19:30:05.307Z,77.8712
2023-05-19T19:31:05.827Z,78.5080
2023-05-19T19:32:08.272Z,79.3532
2023-05-19T19:33:10.334Z,78.4869
2023-05-19T19:40:15.607Z,78.7031
2023-05-19T19:47:28.993Z,79.6135
2023-05-19T19:48:30.688Z,78.4266
2023-05-19T19:49:32.515Z,78.5517
2023-05-19T19:56:38.004Z,78.9360
2023-05-19T19:58:40.241Z,79.1129
2023-05-19T19:59:40.527Z,78.2934
2023-05-19T20:00:42.704Z,78.6287
2023-05-19T20:01:44.905Z,78.7649
2023-05-19T20:05:48.451Z,80.7536
2023-05-19T20:06:49.442Z,80.0958
2023-05-19T20:07:50.797Z,78.8956
2023-05-19T20:08:52.736Z,79.1190
2023-05-19T20:09:54.282Z,79.7825
2023-05-19T20:29:18.528Z,78.7428
2023-05-19T20:37:25.937Z,80.3186
2023-05-19T20:38:25.981Z,80.2453
2023-05-19T20:39:27.926Z,80.6412
2023-05-19T20:40:30.102Z,80.3026
2023-05-19T20:41:32.225Z,81.3374
2023-05-19T21:04:01.550Z,80.0111
2023-05-19T21:05:02.374Z,79.1929
2023-05-19T21:06:03.508Z,79.4472
2023-05-19T21:07:05.298Z,79.4821
2023-05-19T21:15:13.447Z,79.6068
2023-05-19T21:16:14.541Z,79.1987
2023-05-19T21:17:15.757Z,79.9960
2023-05-19T21:18:16.885Z,80.5521
2023-05-19T21:19:18.922Z,80.0627
2023-05-19T21:23:24.788Z,80.7792
2023-05-19T21:24:24.736Z,81.5233
2023-05-19T21:25:25.543Z,80.6286
2023-05-19T21:26:26.464Z,81.0082
2023-05-19T21:27:27.381Z,81.3863
2023-05-19T21:28:29.244Z,81.0702
2023-05-19T21:29:30.241Z,81.3677
2023-05-19T21:31:34.474Z,82.5008
2023-05-19T21:32:35.815Z,80.5998
2023-05-19T21:33:36.820Z,80.4957
2023-05-19T21:34:37.560Z,81.9226
2023-05-19T21:35:37.654Z,81.3113
2023-05-19T21:37:41.088Z,83.3065
2023-05-19T21:38:43.406Z,82.9359
2023-05-19T21:39:43.797Z,82.2024
2023-05-19T21:40:45.283Z,83.3794
2023-05-19T21:42:48.425Z,82.4195
2023-05-19T21:43:49.822Z,82.5912
2023-05-19T21:44:51.616Z,82.6211
2023-05-19T21:45:52.398Z,82.0848
2023-05-19T22:00:08.185Z,83.3487
2023-05-19T22:01:10.136Z,82.3700
2023-05-19T22:02:12.721Z,82.6428
2023-05-19T22:04:12.826Z,81.9461
2023-05-19T22:05:14.197Z,83.0299
2023-05-19T22:06:14.865Z,82.8924
2023-05-19T22:08:18.293Z,83.1524
2023-05-19T22:22:35.465Z,81.9059
2023-05-19T22:23:36.629Z,82.3595
2023-05-19T22:24:37.588Z,82.8721
2023-05-19T22:25:39.325Z,82.9740
2023-05-19T22:26:40.121Z,82.8485
2023-05-19T22:27:42.761Z,81.8487
2023-05-19T22:41:59.163Z,83.9842
2023-05-19T22:43:00.774Z,85.6018
2023-05-19T22:44:02.096Z,85.1068
2023-05-19T22:45:04.951Z,85.6291
2023-05-19T22:46:06.279Z,84.3573
2023-05-19T22:47:07.270Z,85.5674
2023-05-19T22:48:09.192Z,85.8332
2023-05-19T22:49:09.540Z,84.9937
2023-05-19T23:00:24.922Z,85.8594
2023-05-19T23:11:34.177Z,86.8634
2023-05-19T23:12:34.415Z,87.8256
2023-05-19T23:14:36.962Z,88.4871
2023-05-19T23:15:37.616Z,88.9833
2023-05-19T23:20:42.161Z,87.0259
2023-05-19T23:21:43.296Z,88.8401
2023-05-19T23:22:44.271Z,88.5942
2023-05-19T23:23:44.295Z,88.9393
2023-05-19T23:24:45.781Z,89.2332
2023-05-19T23:26:49.506Z,86.6211
2023-05-19T23:27:51.354Z,88.0781
2023-05-19T23:28:52.639Z,88.7242
2023-05-19T23:29:54.776Z,88.8785
2023-05-19T23:30:57.025Z,89.1862
2023-05-19T23:31:58.972Z,86.1278
2023-05-19T23:43:11.144Z,88.3637
2023-05-19T23:44:12.992Z,88.2724
2023-05-19T23:45:14.234Z,88.8288
2023-05-19T23:46:16.273Z,88.8667
2023-05-19T23:47:18.157Z,89.1439
2023-05-19T23:48:19.105Z,88.7877
2023-05-19T23:49:20.420Z,88.6387
2023-05-19T23:50:21.094Z,88.1835
2023-05-19T23:51:23.152Z,88.7935
2023-05-19T23:52:24.524Z,89.2479
2023-05-19T23:54:28.171Z,89.9755
2023-05-19T23:55:30.384Z,90.2552
2023-05-19T23:56:31.599Z,90.3808
2023-05-19T23:57:34.134Z,90.5543
2023-05-19T23:58:35.622Z,90.4170
2023-05-19T23:59:36.764Z,90.8682
